Time;durP1;ratioP1;P1;durP2;ratioP2;P2;SDS_P1;SDS_P2;PMS_P1;PMS_P2;Temp;Humidity;BMP_temperature;BMP_pressure;BME280_temperature;BME280_humidity;BME280_pressure;Samples;Min_cycle;Max_cycle;Signal;HPM_P1;HPM_P2
2020/12/05 00:01:11;;;;;;;25.17;12.52;;;;;;;2.84;69.10;97384.00;3873225;23;19904;-80
2020/12/05 00:02:44;;;;;;;21.17;10.90;;;;;;;2.89;68.67;97375.63;3852795;22;20039;-81
2020/12/05 00:04:19;;;;;;;25.92;12.55;;;;;;;2.95;68.49;97365.25;3854865;22;20005;-82
2020/12/05 00:05:53;;;;;;;19.80;9.07;;;;;;;3.02;68.13;97375.19;3863990;22;20017;-81
2020/12/05 00:07:27;;;;;;;25.90;12.23;;;;;;;3.04;68.21;97374.03;3873424;23;20032;-81
2020/12/05 00:08:59;;;;;;;22.83;12.90;;;;;;;2.95;68.40;97386.34;3846360;22;20009;-81
2020/12/05 00:10:31;;;;;;;26.95;12.63;;;;;;;2.89;68.62;97392.28;3854444;22;20013;-80
2020/12/05 00:12:17;;;;;;;24.08;11.60;;;;;;;2.85;68.23;97393.59;3829288;23;20033;-81
2020/12/05 00:13:50;;;;;;;20.50;10.35;;;;;;;2.92;68.54;97410.47;3846901;22;20044;-81
2020/12/05 00:15:28;;;;;;;24.50;11.40;;;;;;;2.91;68.36;97408.81;3855188;22;20068;-81
2020/12/05 00:17:01;;;;;;;23.65;11.48;;;;;;;3.01;68.28;97423.66;3854061;22;20032;-81
2020/12/05 00:18:31;;;;;;;22.27;11.23;;;;;;;3.05;68.28;97419.72;3873065;23;20000;-80
2020/12/05 00:20:03;;;;;;;21.55;11.68;;;;;;;3.04;68.07;97415.41;3862035;22;20029;-81
2020/12/05 00:21:35;;;;;;;27.83;12.98;;;;;;;3.03;68.19;97409.31;3854512;22;20017;-81
2020/12/05 00:23:07;;;;;;;19.55;10.52;;;;;;;3.06;67.98;97403.72;3849757;22;20035;-81
2020/12/05 00:24:40;;;;;;;21.05;10.25;;;;;;;3.10;67.89;97393.66;3854022;23;20014;-81
2020/12/05 00:26:18;;;;;;;19.85;9.90;;;;;;;3.17;67.35;97393.81;3846453;22;20028;-80
2020/12/05 00:27:53;;;;;;;19.17;10.05;;;;;;;3.11;67.58;97375.00;3854130;23;20020;-80
2020/12/05 00:29:27;;;;;;;20.42;10.07;;;;;;;3.11;67.44;97376.84;3844852;23;20038;-82
2020/12/05 00:30:59;;;;;;;17.30;8.85;;;;;;;3.08;67.45;97371.88;3854231;23;19997;-81
2020/12/05 00:32:33;;;;;;;16.02;8.35;;;;;;;3.07;67.31;97378.94;3847490;22;20017;-81
2020/12/05 00:34:06;;;;;;;19.00;9.98;;;;;;;3.14;67.52;97394.97;3854190;22;20009;-82
2020/12/05 00:35:40;;;;;;;18.58;8.98;;;;;;;3.15;67.51;97403.75;3860699;22;20012;-83
2020/12/05 00:37:12;;;;;;;21.00;10.82;;;;;;;3.14;67.48;97416.09;3873590;22;20000;-81
2020/12/05 00:38:44;;;;;;;25.40;14.35;;;;;;;2.95;67.81;97425.94;3866213;22;20124;-81
2020/12/05 00:40:17;;;;;;;28.85;15.18;;;;;;;2.80;68.13;97448.66;3873484;22;20044;-81
2020/12/05 00:41:57;;;;;;;31.23;14.40;;;;;;;2.73;68.53;97442.38;3806636;22;20062;-82
2020/12/05 00:43:33;;;;;;;26.70;13.55;;;;;;;2.71;68.83;97421.41;3856141;22;20009;-81
2020/12/05 00:45:05;;;;;;;27.02;12.70;;;;;;;2.86;68.49;97389.97;3864778;22;20019;-81
2020/12/05 00:46:46;;;;;;;24.90;12.15;;;;;;;2.82;68.32;97378.09;3873075;22;20012;-81
2020/12/05 00:48:17;;;;;;;20.27;10.23;;;;;;;2.81;68.59;97394.91;3867957;22;20060;-81
2020/12/05 00:49:49;;;;;;;22.77;11.38;;;;;;;2.88;68.66;97400.38;3867822;22;20009;-81
2020/12/05 00:51:21;;;;;;;22.05;11.30;;;;;;;2.92;68.59;97384.06;3872463;22;20008;-81
2020/12/05 00:53:01;;;;;;;20.05;10.57;;;;;;;2.90;68.46;97377.28;3868324;22;20024;-81
2020/12/05 00:54:32;;;;;;;23.73;13.13;;;;;;;2.84;68.55;97349.72;3853664;23;20084;-81
2020/12/05 00:56:03;;;;;;;26.33;13.65;;;;;;;2.75;68.83;97350.69;3859340;22;20016;-81
2020/12/05 00:57:35;;;;;;;32.45;15.60;;;;;;;2.61;68.97;97346.84;3872559;22;20001;-80
2020/12/05 00:59:07;;;;;;;24.10;12.82;;;;;;;2.60;69.20;97371.56;3860105;22;20043;-81
2020/12/05 01:00:40;;;;;;;23.10;10.52;;;;;;;2.69;69.20;97383.00;3854494;22;20101;-82
2020/12/05 01:02:11;;;;;;;21.52;11.52;;;;;;;2.75;69.00;97367.34;3856157;22;20005;-80
2020/12/05 01:03:43;;;;;;;;;;;;;;;2.73;69.28;97376.41;3873668;22;20015;-81
2020/12/05 01:05:15;;;;;;;;;;;;;;;2.76;69.38;97361.09;3861313;22;19900;-81
2020/12/05 01:06:46;;;;;;;20.23;10.48;;;;;;;2.78;68.83;97358.28;3854734;23;19960;-82
2020/12/05 01:08:17;;;;;;;23.55;11.98;;;;;;;2.74;68.77;97357.78;3851067;22;20004;-81
2020/12/05 01:09:49;;;;;;;19.38;10.70;;;;;;;2.82;68.83;97370.19;3854408;22;20017;-80
2020/12/05 01:11:22;;;;;;;22.13;11.05;;;;;;;2.87;68.81;97365.22;3847656;22;20020;-81
2020/12/05 01:12:53;;;;;;;21.55;10.60;;;;;;;2.87;68.98;97373.16;3854089;23;20033;-81
2020/12/05 01:14:25;;;;;;;;;;;;;;;2.75;69.92;97382.34;3849621;22;20082;-81
2020/12/05 01:15:56;;;;;;;23.52;11.82;;;;;;;2.84;69.33;97376.09;3854464;22;19909;-81
2020/12/05 01:17:28;;;;;;;21.30;11.13;;;;;;;2.87;68.97;97378.44;3860506;22;20033;-81
2020/12/05 01:19:00;;;;;;;27.60;12.82;;;;;;;2.86;69.28;97392.59;3873129;23;20012;-81
2020/12/05 01:20:31;;;;;;;22.48;12.23;;;;;;;2.84;69.21;97381.38;3855583;22;20012;-81
2020/12/05 01:22:03;;;;;;;21.45;10.65;;;;;;;2.89;69.16;97396.72;3854212;23;20013;-82
2020/12/05 01:23:42;;;;;;;17.88;8.57;;;;;;;2.87;69.13;97388.97;3848856;22;20394;-81
2020/12/05 01:25:15;;;;;;;20.13;10.13;;;;;;;2.94;69.23;97395.25;3854804;22;20016;-80
2020/12/05 01:26:47;;;;;;;24.50;10.18;;;;;;;2.94;69.15;97402.38;3846953;22;20047;-81
2020/12/05 01:28:25;;;;;;;23.35;12.10;;;;;;;2.93;69.11;97430.56;3853790;23;20009;-83
2020/12/05 01:29:58;;;;;;;25.05;12.27;;;;;;;2.85;69.33;97449.00;3865238;22;20098;-81
2020/12/05 01:31:32;;;;;;;32.28;13.85;;;;;;;2.79;69.72;97452.28;3873199;22;20052;-80
2020/12/05 01:33:04;;;;;;;24.98;13.32;;;;;;;2.72;69.92;97456.56;3850778;22;20029;-81
2020/12/05 01:34:35;;;;;;;21.58;10.90;;;;;;;2.75;69.89;97445.66;3854140;22;20009;-81
2020/12/05 01:36:08;;;;;;;24.50;13.18;;;;;;;2.75;70.05;97464.97;3848374;23;20048;-81
2020/12/05 01:37:40;;;;;;;26.23;13.07;;;;;;;2.67;70.24;97466.75;3847778;23;20035;-81
2020/12/05 01:39:12;;;;;;;23.88;13.45;;;;;;;2.69;70.38;97478.81;3874492;22;20011;-81
2020/12/05 01:40:51;;;;;;;26.50;13.88;;;;;;;2.60;70.23;97483.19;3868662;22;20085;-80
2020/12/05 01:42:23;;;;;;;22.88;12.38;;;;;;;2.63;70.42;97492.59;3874476;23;20024;-81
2020/12/05 01:43:59;;;;;;;26.55;13.15;;;;;;;2.65;70.52;97490.66;3867465;22;20004;-82
2020/12/05 01:45:32;;;;;;;26.38;13.90;;;;;;;2.57;70.54;97472.97;3873749;23;20064;-81
2020/12/05 01:47:05;;;;;;;26.98;14.90;;;;;;;2.57;70.33;97478.22;3869033;22;20012;-81
2020/12/05 01:48:43;;;;;;;27.15;14.32;;;;;;;2.57;70.35;97494.06;3874296;22;20035;-81
2020/12/05 01:50:15;;;;;;;30.33;14.13;;;;;;;2.58;70.15;97508.91;3866629;22;20460;-81
2020/12/05 01:51:50;;;;;;;27.63;14.40;;;;;;;2.56;70.72;97524.06;3873535;22;20039;-81
2020/12/05 01:53:22;;;;;;;26.15;13.18;;;;;;;2.55;70.70;97522.41;3860579;22;20035;-80
2020/12/05 01:54:54;;;;;;;21.30;10.57;;;;;;;2.69;70.42;97528.94;3855031;23;20012;-81
2020/12/05 01:56:27;;;;;;;24.00;11.55;;;;;;;2.76;70.26;97526.47;3848653;22;20009;-81
2020/12/05 01:57:58;;;;;;;20.13;10.02;;;;;;;2.87;69.80;97543.88;3855199;22;20025;-81
2020/12/05 01:59:29;;;;;;;23.27;12.15;;;;;;;2.87;69.84;97555.25;3862014;22;20040;-81
2020/12/05 02:01:10;;;;;;;19.25;9.73;;;;;;;2.88;69.54;97551.63;3873789;22;20000;-81
2020/12/05 02:02:42;;;;;;;;;;;;;;;2.80;69.79;97551.59;3856977;22;20016;-80
2020/12/05 02:04:16;;;;;;;;;;;;;;;2.83;69.91;97530.16;3855417;22;19930;-81
2020/12/05 02:05:58;;;;;;;18.58;8.27;;;;;;;2.89;69.24;97508.41;3851279;22;19904;-81
2020/12/05 02:07:39;;;;;;;17.25;8.85;;;;;;;2.90;68.86;97477.56;3854934;23;20009;-82
2020/12/05 02:09:15;;;;;;;22.38;10.23;;;;;;;3.01;69.00;97479.91;3870327;22;20025;-80
2020/12/05 02:10:49;;;;;;;16.02;8.15;;;;;;;3.00;69.18;97504.66;3870450;22;20008;-80
2020/12/05 02:12:30;;;;;;;17.58;8.48;;;;;;;3.08;68.72;97530.28;3873569;22;20039;-82
2020/12/05 02:14:03;;;;;;;29.33;13.68;;;;;;;2.95;69.06;97552.63;3870355;22;20020;-81
2020/12/05 02:15:40;;;;;;;30.25;14.02;;;;;;;2.77;69.74;97544.81;3873177;22;20009;-80
2020/12/05 02:17:15;;;;;;;25.77;13.18;;;;;;;2.81;70.17;97540.03;3869633;22;20118;-81
2020/12/05 02:18:48;;;;;;;21.63;11.90;;;;;;;2.81;70.39;97530.31;3873879;22;20048;-80
2020/12/05 02:20:22;;;;;;;28.13;14.60;;;;;;;2.77;70.53;97521.06;3868038;22;20016;-80
2020/12/05 02:21:59;;;;;;;26.55;13.98;;;;;;;2.77;70.62;97518.44;3872410;22;20016;-80
2020/12/05 02:23:33;;;;;;;26.42;13.48;;;;;;;2.69;70.80;97534.22;3870233;22;20012;-80
2020/12/05 02:25:15;;;;;;;29.38;14.05;;;;;;;2.54;71.96;97557.69;3873369;22;20008;-81
2020/12/05 02:26:47;;;;;;;29.38;15.55;;;;;;;2.44;72.51;97578.06;3866621;22;20013;-80
2020/12/05 02:28:20;;;;;;;26.80;14.65;;;;;;;2.35;73.35;97579.78;3874607;22;20016;-81
2020/12/05 02:29:53;;;;;;;27.42;13.45;;;;;;;2.34;73.24;97578.97;3854569;22;20009;-81
2020/12/05 02:31:31;;;;;;;24.13;12.48;;;;;;;2.31;73.92;97581.09;3854669;23;20009;-80
2020/12/05 02:33:05;;;;;;;28.15;14.98;;;;;;;2.32;73.83;97583.56;3851118;23;20009;-80
2020/12/05 02:34:37;;;;;;;27.67;13.65;;;;;;;2.26;74.03;97564.88;3855184;23;20016;-81
2020/12/05 02:36:11;;;;;;;24.35;13.00;;;;;;;2.24;74.08;97551.88;3870912;23;20082;-80
2020/12/05 02:37:54;;;;;;;24.08;10.52;;;;;;;2.37;74.16;97534.81;3870387;23;20056;-80
2020/12/05 02:39:26;;;;;;;20.27;11.15;;;;;;;2.39;73.89;97527.56;3853714;23;20097;-80
2020/12/05 02:40:58;;;;;;;24.98;10.93;;;;;;;2.34;73.83;97528.88;3854988;23;20029;-80
2020/12/05 02:42:29;;;;;;;26.65;14.55;;;;;;;2.31;74.29;97558.19;3872121;22;20019;-81
2020/12/05 02:44:01;;;;;;;;;;;;;;;2.10;75.97;97576.97;3868739;22;20032;-81
2020/12/05 02:45:33;;;;;;;25.92;13.90;;;;;;;2.05;75.70;97586.31;3871205;22;19904;-81
2020/12/05 02:47:03;;;;;;;31.88;15.25;;;;;;;1.97;76.14;97577.34;3862187;22;20040;-82
2020/12/05 02:48:35;;;;;;;;;;;;;;;1.93;77.65;97590.97;3854482;22;20036;-82
2020/12/05 02:50:13;;;;;;;28.55;13.40;;;;;;;1.94;77.02;97589.97;3843573;23;19931;-82
2020/12/05 02:51:46;;;;;;;31.42;15.75;;;;;;;1.91;76.87;97617.47;3855802;22;20020;-80
2020/12/05 02:53:18;;;;;;;29.08;14.82;;;;;;;1.94;76.25;97616.31;3852847;22;20035;-81
2020/12/05 02:54:52;;;;;;;25.63;13.15;;;;;;;1.92;76.60;97613.03;3873257;23;20011;-81
2020/12/05 02:56:25;;;;;;;24.30;13.32;;;;;;;2.01;76.60;97628.75;3866209;22;20008;-81
2020/12/05 02:57:57;;;;;;;24.13;11.75;;;;;;;2.03;76.47;97628.63;3873299;23;20027;-81
2020/12/05 02:59:29;;;;;;;21.50;10.32;;;;;;;2.09;76.32;97633.28;3856743;22;20048;-81
2020/12/05 03:01:07;;;;;;;29.48;13.65;;;;;;;2.13;76.13;97639.91;3855099;22;20023;-81
2020/12/05 03:02:41;;;;;;;20.88;10.00;;;;;;;2.21;75.96;97651.53;3858751;22;20009;-81
2020/12/05 03:04:15;;;;;;;25.73;12.50;;;;;;;2.23;76.11;97655.66;3873975;22;20005;-81
2020/12/05 03:05:50;;;;;;;29.00;14.18;;;;;;;2.06;76.96;97659.13;3855640;22;20043;-81
2020/12/05 03:07:23;;;;;;;29.98;15.32;;;;;;;2.02;77.04;97674.41;3874553;22;20008;-81
2020/12/05 03:08:56;;;;;;;25.52;13.07;;;;;;;1.99;77.06;97690.50;3831997;22;20019;-82
2020/12/05 03:10:30;;;;;;;29.67;15.23;;;;;;;1.97;77.58;97711.75;3848969;22;20013;-82
2020/12/05 03:12:07;;;;;;;24.88;11.70;;;;;;;2.02;77.47;97724.50;3847116;22;20013;-81
2020/12/05 03:14:09;;;;;;;22.55;12.90;;;;;;;1.96;77.98;97718.00;3853358;22;20020;-82
2020/12/05 04:42:07;;;;;;;16.65;8.60;;;;;;;2.48;78.41;97845.78;3782728;23;20045;-81
2020/12/05 04:43:39;;;;;;;18.15;8.82;;;;;;;2.52;78.28;97844.53;3817104;23;20022;-81
2020/12/05 04:45:12;;;;;;;16.33;8.98;;;;;;;2.53;78.32;97840.91;3810998;23;20005;-80
2020/12/05 04:46:45;;;;;;;16.33;8.77;;;;;;;2.52;78.39;97836.59;3813444;23;20032;-80
2020/12/05 04:48:33;;;;;;;15.82;8.50;;;;;;;2.59;78.47;97842.94;3818557;23;20014;-81
2020/12/05 04:50:06;;;;;;;16.13;9.05;;;;;;;2.60;78.33;97851.69;3812930;23;20020;-81
2020/12/05 04:51:58;;;;;;;14.90;8.80;;;;;;;2.61;77.96;97848.91;3817445;23;20074;-81
2020/12/05 04:53:47;;;;;;;13.30;7.28;;;;;;;2.64;78.07;97843.34;3814586;23;20089;-81
2020/12/05 04:55:23;;;;;;;13.25;7.53;;;;;;;2.68;78.01;97840.41;3818349;23;20014;-81
2020/12/05 04:57:03;;;;;;;13.75;7.38;;;;;;;2.71;78.07;97843.56;3812568;23;20077;-80
2020/12/05 04:58:39;;;;;;;12.73;7.53;;;;;;;2.75;77.87;97846.72;3816415;23;20074;-81
2020/12/05 05:00:19;;;;;;;11.57;6.82;;;;;;;2.76;77.94;97856.31;3813636;23;20037;-81
2020/12/05 05:01:57;;;;;;;11.23;7.10;;;;;;;2.80;77.70;97863.78;3804857;23;20059;-82
2020/12/05 05:03:48;;;;;;;14.23;8.23;;;;;;;2.73;77.77;97862.72;3800100;23;20049;-82
2020/12/05 05:05:34;;;;;;;14.18;8.32;;;;;;;2.75;77.81;97859.94;3797467;23;20022;-81
2020/12/05 05:07:26;;;;;;;12.48;7.40;;;;;;;2.76;77.68;97859.78;3800079;23;20073;-82
2020/12/05 07:35:28;;;;;;;12.13;7.20;;;;;;;3.09;78.42;98115.41;3824565;22;20029;-79
2020/12/05 07:37:00;;;;;;;11.90;6.53;;;;;;;3.15;78.16;98108.72;3816705;23;20525;-80
2020/12/05 07:38:33;;;;;;;12.95;6.38;;;;;;;3.21;77.84;98108.94;3836377;23;20032;-79
2020/12/05 07:40:06;;;;;;;9.27;6.07;;;;;;;3.26;78.05;98104.06;3836068;23;20087;-78
2020/12/05 07:41:37;;;;;;;11.65;6.35;;;;;;;3.30;77.83;98098.50;3833558;22;20048;-80
2020/12/05 07:43:16;;;;;;;12.95;7.35;;;;;;;3.26;77.72;98098.78;3837448;23;20020;-79
2020/12/05 07:44:53;;;;;;;12.30;6.97;;;;;;;3.34;77.77;98089.28;3848632;23;20080;-77
2020/12/05 07:46:28;;;;;;;12.00;6.78;;;;;;;3.35;77.70;98089.16;3856509;23;20021;-78
2020/12/05 07:48:12;;;;;;;11.52;6.68;;;;;;;3.37;77.65;98107.50;3836308;22;20032;-78
2020/12/05 07:49:51;;;;;;;12.40;7.25;;;;;;;3.28;77.56;98107.41;3838202;23;20115;-80
2020/12/05 07:51:23;;;;;;;13.77;8.15;;;;;;;3.26;77.87;98111.13;3849784;23;20028;-80
2020/12/05 07:53:03;;;;;;;11.80;6.60;;;;;;;3.32;77.58;98113.22;3853880;23;20035;-80
2020/12/05 07:54:34;;;;;;;14.35;8.13;;;;;;;3.36;77.83;98122.50;3855975;23;20021;-78
2020/12/05 07:56:14;;;;;;;13.73;7.68;;;;;;;3.34;77.65;98134.19;3849613;23;20043;-78
2020/12/05 07:57:51;;;;;;;14.07;8.05;;;;;;;3.33;77.73;98132.53;3857327;23;20047;-79
2020/12/05 07:59:25;;;;;;;11.82;7.20;;;;;;;3.33;77.80;98148.38;3868392;22;20050;-80
2020/12/05 08:00:57;;;;;;;13.85;7.65;;;;;;;3.37;77.72;98155.03;3896816;22;20027;-76
2020/12/05 08:02:45;;;;;;;10.45;6.53;;;;;;;3.36;77.34;98159.47;3898461;22;20035;-78
2020/12/05 08:04:46;;;;;;;13.02;7.05;;;;;;;3.28;77.07;98164.66;3893888;22;20098;-78
2020/12/05 08:06:42;;;;;;;23.00;12.98;;;;;;;3.34;77.25;98160.59;3893160;22;20012;-77
2020/12/05 08:08:19;;;;;;;16.73;9.63;;;;;;;3.20;77.58;98159.28;3893177;22;20583;-80
2020/12/05 08:09:52;;;;;;;12.35;6.93;;;;;;;3.22;77.85;98152.84;3894750;22;20062;-80
2020/12/05 08:11:25;;;;;;;12.05;6.65;;;;;;;3.26;77.96;98142.84;3891583;22;20081;-80
2020/12/05 08:13:20;;;;;;;15.45;8.27;;;;;;;3.20;77.82;98152.19;3893189;22;20046;-78
2020/12/05 08:14:54;;;;;;;11.32;7.50;;;;;;;3.20;77.83;98159.28;3891967;22;20019;-78
2020/12/05 08:16:27;;;;;;;12.73;7.38;;;;;;;3.22;77.93;98163.41;3895619;22;20372;-79
2020/12/05 08:18:01;;;;;;;12.15;6.93;;;;;;;3.19;77.88;98163.72;3912034;22;20171;-78
2020/12/05 08:19:39;;;;;;;11.77;7.22;;;;;;;3.20;77.94;98169.84;3916297;22;20003;-79
2020/12/05 08:21:25;;;;;;;11.10;5.38;;;;;;;3.26;77.90;98163.97;3911217;22;20016;-80
2020/12/05 08:23:03;;;;;;;12.52;5.38;;;;;;;3.36;77.80;98159.47;3914195;22;20023;-79
2020/12/05 08:24:48;;;;;;;12.85;7.07;;;;;;;3.42;77.59;98164.22;3922470;22;20023;-79
2020/12/05 08:26:19;;;;;;;13.77;7.70;;;;;;;3.48;77.76;98172.50;3919711;22;20019;-78
2020/12/05 08:27:51;;;;;;;13.85;8.07;;;;;;;3.52;77.34;98171.25;3921939;22;20023;-78
2020/12/05 08:29:28;;;;;;;15.15;7.07;;;;;;;3.55;77.46;98163.88;3916746;22;20038;-78
2020/12/05 08:31:05;;;;;;;11.15;5.25;;;;;;;3.58;77.16;98174.16;3919792;22;20042;-78
2020/12/05 08:32:40;;;;;;;9.88;5.20;;;;;;;3.62;77.34;98168.56;3887081;22;20472;-78
2020/12/05 08:34:15;;;;;;;8.02;4.63;;;;;;;3.67;77.40;98176.91;3899312;22;20026;-78
2020/12/05 08:35:49;;;;;;;10.18;4.75;;;;;;;3.72;77.09;98182.56;3896486;22;20027;-78
2020/12/05 08:37:27;;;;;;;11.02;6.03;;;;;;;3.76;76.84;98181.31;3899004;22;20023;-78
2020/12/05 08:39:07;;;;;;;8.75;5.20;;;;;;;3.76;76.78;98176.00;3893831;22;20386;-78
2020/12/05 08:40:40;;;;;;;10.85;6.50;;;;;;;3.73;76.92;98184.22;3891780;22;20015;-79
2020/12/05 08:42:21;;;;;;;13.80;7.45;;;;;;;3.64;76.96;98182.47;3893776;22;20046;-81
2020/12/05 08:43:55;;;;;;;11.80;7.53;;;;;;;3.54;77.20;98187.81;3892031;22;20094;-79
2020/12/05 08:45:43;;;;;;;15.15;9.10;;;;;;;3.40;77.01;98189.94;3894970;22;20257;-80
2020/12/05 08:47:19;;;;;;;16.30;9.50;;;;;;;3.34;77.54;98198.44;3892320;22;20035;-80
2020/12/05 08:48:55;;;;;;;14.25;7.20;;;;;;;3.40;77.51;98203.13;3894769;22;20062;-80
2020/12/05 08:50:34;;;;;;;13.93;7.82;;;;;;;3.47;77.43;98213.97;3890710;22;20069;-80
2020/12/05 08:52:10;;;;;;;15.55;8.68;;;;;;;3.36;77.37;98206.22;3893895;22;20406;-80
2020/12/05 08:53:50;;;;;;;12.00;6.25;;;;;;;3.41;77.63;98217.16;3904763;22;20019;-81
2020/12/05 08:55:31;;;;;;;13.75;7.70;;;;;;;3.43;77.29;98223.16;3913076;22;20367;-80
2020/12/05 08:57:11;;;;;;;21.92;11.45;;;;;;;3.36;77.43;98233.44;3882738;22;20027;-79
2020/12/05 08:58:48;;;;;;;15.02;8.13;;;;;;;3.35;77.80;98230.97;3873730;23;20414;-80
2020/12/05 09:00:33;;;;;;;16.08;6.88;;;;;;;3.45;77.81;98229.13;3874746;23;20024;-81
2020/12/05 09:02:13;;;;;;;16.67;6.75;;;;;;;3.50;77.56;98234.78;3872952;23;20020;-80
2020/12/05 09:03:47;;;;;;;12.13;6.32;;;;;;;3.55;77.32;98237.84;3876196;23;20353;-80
2020/12/05 09:05:18;;;;;;;13.27;7.28;;;;;;;3.64;77.51;98241.41;3873681;23;20028;-81
2020/12/05 09:07:16;;;;;;;13.98;6.93;;;;;;;3.67;77.06;98235.03;3876334;23;20411;-80
2020/12/05 09:09:00;;;;;;;18.95;9.18;;;;;;;3.59;76.88;98236.56;3872817;22;20103;-80
2020/12/05 09:10:38;;;;;;;20.77;10.07;;;;;;;3.50;76.82;98241.91;3875592;23;20024;-80
2020/12/05 09:12:15;;;;;;;18.60;10.43;;;;;;;3.49;77.57;98248.16;3873728;23;20016;-80
2020/12/05 09:13:52;;;;;;;15.95;7.35;;;;;;;3.50;77.34;98255.94;3871504;22;20416;-81
2020/12/05 09:15:24;;;;;;;16.70;7.88;;;;;;;3.60;77.38;98250.63;3856883;23;20354;-80
2020/12/05 09:16:59;;;;;;;22.77;10.13;;;;;;;3.59;77.46;98248.97;3852568;23;20480;-80
2020/12/05 09:18:42;;;;;;;17.83;7.25;;;;;;;3.65;77.23;98255.47;3860657;23;20005;-80
2020/12/05 09:20:22;;;;;;;15.90;7.60;;;;;;;3.67;76.94;98250.91;3866955;22;20069;-79
2020/12/05 09:21:53;;;;;;;16.33;8.82;;;;;;;3.62;77.05;98247.84;3868838;23;20105;-79
2020/12/05 09:23:29;;;;;;;16.73;7.30;;;;;;;3.59;77.28;98239.22;3861537;23;20017;-79
2020/12/05 09:25:00;;;;;;;17.27;10.13;;;;;;;3.58;77.28;98236.72;3857562;23;20020;-79
2020/12/05 09:26:33;;;;;;;17.88;9.32;;;;;;;3.59;77.36;98239.22;3852918;22;20028;-79
2020/12/05 09:28:13;;;;;;;16.08;7.50;;;;;;;3.62;77.23;98247.84;3858106;23;20357;-79
2020/12/05 09:29:45;;;;;;;21.23;8.05;;;;;;;3.63;77.29;98242.44;3851147;23;20433;-79
2020/12/05 09:31:16;;;;;;;15.88;8.63;;;;;;;3.64;77.23;98240.59;3854942;23;20039;-79
2020/12/05 09:32:48;;;;;;;11.23;6.70;;;;;;;3.71;77.11;98246.97;3852572;22;20043;-78
2020/12/05 09:34:38;;;;;;;14.90;6.90;;;;;;;3.74;76.70;98252.78;3855108;23;20017;-78
2020/12/05 09:36:09;;;;;;;15.10;7.30;;;;;;;3.85;76.95;98258.88;3869139;23;20089;-79
2020/12/05 09:37:41;;;;;;;15.30;6.63;;;;;;;3.87;76.90;98255.09;3869407;22;20031;-77
2020/12/05 09:39:13;;;;;;;16.15;8.30;;;;;;;3.96;76.70;98257.88;3854213;23;20095;-78
2020/12/05 09:42:51;;;;;;;20.65;8.52;;;;;;;3.95;76.35;98249.09;3844931;22;20283;-79
2020/12/05 09:44:26;;;;;;;20.88;9.20;;;;;;;4.04;76.29;98247.41;3856112;22;20029;-81
2020/12/05 09:46:01;;;;;;;16.70;9.82;;;;;;;4.07;76.59;98252.38;3860872;23;20048;-80
2020/12/05 09:47:33;;;;;;;22.77;10.00;;;;;;;4.10;76.36;98252.09;3849768;23;20020;-81
2020/12/05 09:49:11;;;;;;;20.85;10.27;;;;;;;4.11;76.17;98253.75;3860692;22;20021;-81
2020/12/05 09:50:43;;;;;;;25.00;9.88;;;;;;;4.19;76.43;98255.66;3850290;22;20061;-80
2020/12/05 09:57:34;;;;;;;14.68;7.18;;;;;;;4.11;76.10;98248.47;3844422;23;20028;-82
2020/12/05 09:59:07;;;;;;;14.82;8.15;;;;;;;4.20;75.95;98263.44;3790677;23;20026;-80
2020/12/05 10:00:41;;;;;;;12.77;7.40;;;;;;;4.27;75.88;98263.69;3855955;23;20035;-80
2020/12/05 10:02:12;;;;;;;13.90;7.65;;;;;;;4.33;75.97;98259.63;3853886;23;20436;-80
2020/12/05 10:03:43;;;;;;;12.15;6.82;;;;;;;4.30;75.87;98254.63;3860694;23;20040;-80
2020/12/05 10:05:15;;;;;;;13.00;5.82;;;;;;;4.34;75.67;98253.34;3857889;22;20054;-80
2020/12/05 10:06:47;;;;;;;10.45;5.72;;;;;;;4.40;75.83;98265.97;3858771;23;20024;-79
2020/12/05 10:08:18;;;;;;;10.90;5.30;;;;;;;4.46;75.85;98273.31;3854487;23;20472;-79
2020/12/05 10:09:49;;;;;;;15.40;7.68;;;;;;;4.51;75.72;98271.06;3858540;23;20028;-80
2020/12/05 10:11:21;;;;;;;13.95;8.50;;;;;;;4.51;75.85;98268.41;3853348;22;20063;-80
2020/12/05 10:12:52;;;;;;;17.08;8.93;;;;;;;4.50;75.78;98273.84;3857237;23;20116;-80
2020/12/05 10:14:28;;;;;;;17.80;9.35;;;;;;;4.43;75.40;98276.28;3856005;23;20060;-80
2020/12/05 10:16:02;;;;;;;16.48;8.50;;;;;;;4.42;75.66;98271.97;3857806;23;20021;-80
2020/12/05 10:17:36;;;;;;;16.27;8.55;;;;;;;4.41;76.03;98265.00;3854306;22;20036;-80
2020/12/05 10:19:14;;;;;;;18.30;9.38;;;;;;;4.46;75.64;98278.59;3856958;23;20021;-80
2020/12/05 10:20:56;;;;;;;13.30;8.05;;;;;;;4.52;75.80;98264.78;3848362;22;20000;-81
2020/12/05 10:22:27;;;;;;;23.15;9.60;;;;;;;4.49;75.83;98264.22;3864880;23;20044;-80
2020/12/05 10:23:59;;;;;;;15.32;6.93;;;;;;;4.52;75.94;98271.88;3855050;22;20035;-79
2020/12/05 10:25:32;;;;;;;17.60;7.63;;;;;;;4.52;75.72;98264.78;3861296;23;20024;-80
2020/12/05 10:27:03;;;;;;;12.75;7.03;;;;;;;4.57;75.73;98263.50;3836820;23;20025;-80
2020/12/05 10:28:35;;;;;;;13.93;7.00;;;;;;;4.58;75.87;98263.34;3852078;23;20021;-80
2020/12/05 10:30:09;;;;;;;11.20;6.20;;;;;;;4.62;75.78;98262.06;3857435;23;20085;-80
2020/12/05 10:31:45;;;;;;;13.80;6.55;;;;;;;4.64;75.45;98249.53;3853527;22;20020;-81
2020/12/05 10:33:16;;;;;;;11.77;5.40;;;;;;;4.67;75.56;98243.09;3860135;23;20020;-81
2020/12/05 10:34:47;;;;;;;12.02;7.22;;;;;;;4.66;75.44;98236.97;3860434;23;20024;-80
2020/12/05 10:36:26;;;;;;;12.43;5.88;;;;;;;4.69;75.06;98247.25;3865905;23;20024;-80
2020/12/05 10:37:58;;;;;;;12.30;6.03;;;;;;;4.69;75.42;98257.00;3859781;22;21206;-80
2020/12/05 10:39:29;;;;;;;11.95;5.43;;;;;;;4.69;75.16;98264.94;3858298;23;20472;-79
2020/12/05 10:41:01;;;;;;;10.98;6.15;;;;;;;4.71;75.24;98278.88;3838399;23;20028;-80
2020/12/05 10:42:36;;;;;;;12.50;7.15;;;;;;;4.71;75.15;98272.72;3865338;23;20030;-81
2020/12/05 10:44:11;;;;;;;12.05;6.38;;;;;;;4.66;75.35;98283.78;3867410;22;20373;-80
2020/12/05 10:46:01;;;;;;;9.40;5.78;;;;;;;4.60;75.32;98279.91;3865755;22;20466;-81
2020/12/05 10:47:45;;;;;;;12.73;6.85;;;;;;;4.63;75.05;98284.09;3798233;23;20036;-81
2020/12/05 10:49:24;;;;;;;10.07;5.32;;;;;;;4.64;75.31;98293.66;3843764;23;20009;-81
2020/12/05 10:50:59;;;;;;;9.90;5.38;;;;;;;4.66;75.25;98295.22;3859400;22;20024;-80
2020/12/05 10:52:30;;;;;;;17.60;7.60;;;;;;;4.58;75.37;98302.22;3860109;23;20096;-80
2020/12/05 10:54:01;;;;;;;13.45;6.65;;;;;;;4.47;75.62;98306.72;3856214;23;20090;-80
2020/12/05 10:55:32;;;;;;;12.48;6.50;;;;;;;4.48;75.61;98313.69;3861175;23;20025;-80
2020/12/05 10:57:05;;;;;;;11.82;6.45;;;;;;;4.49;75.68;98318.00;3860146;22;20031;-81
2020/12/05 10:58:36;;;;;;;11.50;6.72;;;;;;;4.48;75.74;98318.16;3859808;23;20055;-81
2020/12/05 11:00:07;;;;;;;17.83;9.05;;;;;;;4.48;75.75;98305.75;3852779;23;20362;-81
2020/12/05 11:01:39;;;;;;;13.38;8.30;;;;;;;4.41;75.66;98302.03;3848924;23;20350;-82
2020/12/05 11:05:00;;;;;;;12.35;6.85;;;;;;;4.37;76.32;98311.25;3805150;23;20118;-80
2020/12/05 11:06:31;;;;;;;12.30;6.07;;;;;;;4.44;76.24;98312.31;3856846;23;20021;-80
2020/12/05 11:08:06;;;;;;;12.48;6.82;;;;;;;4.48;76.13;98311.06;3854604;22;20484;-80
2020/12/05 11:09:45;;;;;;;10.15;5.18;;;;;;;4.53;75.56;98310.59;3859745;23;20076;-80
2020/12/05 11:25:22;;;;;;;8.30;4.43;;;;;;;4.51;74.99;98324.00;3863869;22;20511;-79
2020/12/05 11:27:15;;;;;;;8.80;5.10;;;;;;;4.53;74.87;98322.00;3870122;23;20005;-81
2020/12/05 11:28:58;;;;;;;7.28;3.30;;;;;;;4.53;74.71;98298.19;3820952;23;20061;-80
2020/12/05 11:30:39;;;;;;;7.90;4.63;;;;;;;4.62;74.71;98303.59;3847909;23;20032;-82
2020/12/05 11:32:11;;;;;;;9.48;5.28;;;;;;;4.66;74.79;98295.22;3852682;22;20012;-82
2020/12/05 11:33:50;;;;;;;10.30;6.32;;;;;;;4.52;74.73;98287.75;3844126;23;20029;-80
2020/12/05 11:35:23;;;;;;;11.30;6.63;;;;;;;4.49;75.20;98290.69;3846984;23;20028;-83
2020/12/05 11:37:15;;;;;;;9.63;5.85;;;;;;;4.41;75.32;98278.22;3851105;23;20021;-82
2020/12/05 11:39:06;;;;;;;17.88;8.27;;;;;;;4.42;75.36;98287.84;3821915;22;20028;-82
2020/12/05 11:40:40;;;;;;;12.45;6.78;;;;;;;4.56;75.36;98293.59;3850215;22;20071;-83
2020/12/05 11:42:40;;;;;;;12.32;7.55;;;;;;;4.47;75.05;98285.56;3842199;23;20035;-83
2020/12/05 11:44:13;;;;;;;12.13;7.45;;;;;;;4.52;75.33;98282.47;3839519;22;20082;-82
2020/12/05 11:47:24;;;;;;;12.52;7.63;;;;;;;4.39;75.51;98292.59;3850926;22;20016;-81